createdAt,value
2023-04-09T00:02:04.438Z,101415.97
2023-04-09T00:04:32.646Z,101410.38
2023-04-09T00:07:00.564Z,101407.81
2023-04-09T00:09:28.580Z,101407.81
2023-04-09T00:11:57.199Z,101408.75
2023-04-09T00:14:25.292Z,101410.38
2023-04-09T00:16:53.171Z,101410.44
2023-04-09T00:19:20.747Z,101400.06
2023-04-09T00:21:48.509Z,101409.59
2023-04-09T00:24:16.547Z,101409.66
2023-04-09T00:26:44.229Z,101403.59
2023-04-09T00:29:12.159Z,101406.06
2023-04-09T00:31:40.207Z,101406.06
2023-04-09T00:34:08.445Z,101405.00
2023-04-09T00:36:36.282Z,101410.78
2023-04-09T00:39:04.392Z,101417.91
2023-04-09T00:41:31.919Z,101408.44
2023-04-09T00:44:00.361Z,101411.09
2023-04-09T00:46:28.490Z,101414.72
2023-04-09T00:48:56.248Z,101410.09
2023-04-09T00:51:23.904Z,101409.22
2023-04-09T00:53:51.631Z,101394.59
2023-04-09T00:56:18.565Z,101392.75
2023-04-09T00:58:45.657Z,101392.50
2023-04-09T01:01:13.680Z,101399.19
2023-04-09T01:03:41.307Z,101398.34
2023-04-09T01:06:08.531Z,101405.13
2023-04-09T01:08:48.057Z,101418.03
2023-04-09T01:11:23.850Z,101412.94
2023-04-09T01:13:53.382Z,101417.34
2023-04-09T01:16:24.514Z,101418.16
2023-04-09T01:18:56.571Z,101413.69
2023-04-09T01:21:26.673Z,101418.72
2023-04-09T01:24:32.874Z,101431.81
2023-04-09T01:27:06.231Z,101432.38
2023-04-09T01:29:40.340Z,101431.38
2023-04-09T01:32:07.457Z,101434.56
2023-04-09T01:34:34.532Z,101430.88
2023-04-09T01:37:02.938Z,101432.44
2023-04-09T01:39:30.557Z,101432.44
2023-04-09T01:41:58.225Z,101433.38
2023-04-09T01:44:26.333Z,101428.00
2023-04-09T01:46:53.524Z,101428.50
2023-04-09T01:49:21.525Z,101437.16
2023-04-09T01:51:49.649Z,101438.09
2023-04-09T01:54:17.143Z,101438.88
2023-04-09T01:56:45.522Z,101439.94
2023-04-09T01:59:12.699Z,101439.34
2023-04-09T02:01:45.125Z,101443.56
2023-04-09T02:04:30.472Z,101436.78
2023-04-09T02:07:09.589Z,101441.53
2023-04-09T02:09:38.419Z,101437.94
2023-04-09T02:12:06.945Z,101438.72
2023-04-09T02:14:34.456Z,101430.59
2023-04-09T02:17:02.230Z,101434.47
2023-04-09T02:19:39.739Z,101436.88
2023-04-09T02:22:07.603Z,101446.50
2023-04-09T02:24:34.721Z,101443.94
2023-04-09T02:27:06.390Z,101439.56
2023-04-09T02:29:34.304Z,101437.00
2023-04-09T02:32:02.796Z,101442.97
2023-04-09T02:34:29.952Z,101446.41
2023-04-09T02:36:57.801Z,101447.44
2023-04-09T02:39:26.005Z,101443.06
2023-04-09T02:41:53.939Z,101441.34
2023-04-09T02:44:22.010Z,101443.22
2023-04-09T02:46:51.444Z,101448.38
2023-04-09T02:49:19.250Z,101444.88
2023-04-09T02:51:46.855Z,101439.81
2023-04-09T02:54:14.907Z,101438.75
2023-04-09T02:56:42.438Z,101435.03
2023-04-09T02:59:10.429Z,101437.75
2023-04-09T03:01:38.424Z,101439.47
2023-04-09T03:04:06.171Z,101440.44
2023-04-09T03:06:34.481Z,101439.81
2023-04-09T03:09:02.474Z,101449.47
2023-04-09T03:11:30.619Z,101433.25
2023-04-09T03:13:58.092Z,101436.59
2023-04-09T03:16:26.639Z,101434.91
2023-04-09T03:18:54.764Z,101439.31
2023-04-09T03:21:22.887Z,101436.66
2023-04-09T03:23:50.960Z,101441.91
2023-04-09T03:26:18.996Z,101440.28
2023-04-09T03:28:46.794Z,101442.06
2023-04-09T03:31:14.919Z,101440.41
2023-04-09T03:33:42.640Z,101439.66
2023-04-09T03:36:10.757Z,101439.72
2023-04-09T03:38:38.325Z,101445.88
2023-04-09T03:41:06.154Z,101452.94
2023-04-09T03:43:34.398Z,101446.97
2023-04-09T03:46:02.825Z,101447.75
2023-04-09T03:48:30.496Z,101449.38
2023-04-09T03:50:58.011Z,101449.19
2023-04-09T03:53:25.597Z,101452.69
2023-04-09T03:55:53.611Z,101450.13
2023-04-09T03:58:21.388Z,101451.03
2023-04-09T04:00:49.315Z,101457.28
2023-04-09T04:03:17.294Z,101457.34
2023-04-09T04:05:45.394Z,101458.31
2023-04-09T04:08:14.321Z,101460.97
2023-04-09T04:10:42.396Z,101463.75
2023-04-09T04:13:10.056Z,101464.56
2023-04-09T04:15:43.773Z,101462.84
2023-04-09T04:18:11.926Z,101468.78
2023-04-09T04:20:39.712Z,101467.13
2023-04-09T04:23:07.316Z,101471.13
2023-04-09T04:25:35.773Z,101469.94
2023-04-09T04:28:04.229Z,101463.94
2023-04-09T04:30:32.557Z,101469.94
2023-04-09T04:33:00.371Z,101475.91
2023-04-09T04:35:31.078Z,101470.75
2023-04-09T04:37:58.826Z,101480.94
2023-04-09T04:40:27.005Z,101480.00
2023-04-09T04:42:54.880Z,101479.88
2023-04-09T04:45:22.867Z,101472.16
2023-04-09T04:47:50.601Z,101474.69
2023-04-09T04:50:18.424Z,101475.41
2023-04-09T04:52:46.308Z,101474.63
2023-04-09T04:55:14.690Z,101480.53
2023-04-09T04:57:42.838Z,101482.09
2023-04-09T05:00:13.340Z,101482.09
2023-04-09T05:02:41.139Z,101484.63
2023-04-09T05:05:09.702Z,101481.84
2023-04-09T05:07:37.494Z,101485.16
2023-04-09T05:10:08.158Z,101487.72
2023-04-09T05:12:35.972Z,101493.22
2023-04-09T05:15:04.389Z,101489.94
2023-04-09T05:17:32.008Z,101494.22
2023-04-09T05:19:59.819Z,101492.41
2023-04-09T05:22:27.241Z,101500.25
2023-04-09T05:24:55.293Z,101502.03
2023-04-09T05:27:24.531Z,101503.75
2023-04-09T05:29:55.569Z,101509.94
2023-04-09T05:32:23.162Z,101505.66
2023-04-09T05:34:51.032Z,101505.66
2023-04-09T05:37:18.798Z,101508.13
2023-04-09T05:39:46.878Z,101513.34
2023-04-09T05:42:14.755Z,101517.91
2023-04-09T05:44:42.848Z,101511.09
2023-04-09T05:47:12.788Z,101518.22
2023-04-09T05:49:40.320Z,101518.31
2023-04-09T05:52:08.370Z,101515.09
2023-04-09T05:54:36.516Z,101521.41
2023-04-09T05:57:04.522Z,101524.31
2023-04-09T05:59:32.461Z,101524.69
2023-04-09T06:02:00.508Z,101520.69
2023-04-09T06:04:28.677Z,101531.25
2023-04-09T06:07:00.197Z,101535.88
2023-04-09T06:09:28.443Z,101531.78
2023-04-09T06:11:56.567Z,101535.81
2023-04-09T06:14:27.941Z,101530.25
2023-04-09T06:16:55.596Z,101535.31
2023-04-09T06:19:23.835Z,101543.16
2023-04-09T06:21:51.884Z,101539.56
2023-04-09T06:24:20.268Z,101539.53
2023-04-09T06:26:48.442Z,101542.13
2023-04-09T06:29:16.664Z,101543.00
2023-04-09T06:31:44.370Z,101536.97
2023-04-09T06:34:12.071Z,101550.03
2023-04-09T06:36:40.535Z,101543.31
2023-04-09T06:39:08.397Z,101546.66
2023-04-09T06:41:37.535Z,101549.88
2023-04-09T06:44:05.808Z,101549.88
2023-04-09T06:46:33.110Z,101547.38
2023-04-09T06:49:00.863Z,101558.03
2023-04-09T06:51:28.936Z,101556.47
2023-04-09T06:53:57.131Z,101558.63
2023-04-09T06:56:25.327Z,101553.88
2023-04-09T06:58:53.448Z,101552.56
2023-04-09T07:01:21.349Z,101556.16
2023-04-09T07:03:48.967Z,101564.09
2023-04-09T07:06:17.088Z,101567.88
2023-04-09T07:08:45.355Z,101565.53
2023-04-09T07:11:13.117Z,101567.66
2023-04-09T07:13:40.905Z,101563.00
2023-04-09T07:16:08.655Z,101566.59
2023-04-09T07:18:39.706Z,101558.91
2023-04-09T07:21:07.727Z,101569.59
2023-04-09T07:23:36.473Z,101572.38
2023-04-09T07:26:06.800Z,101575.97
2023-04-09T07:28:34.429Z,101582.16
2023-04-09T07:31:05.003Z,101577.63
2023-04-09T07:33:33.256Z,101579.22
2023-04-09T07:36:04.895Z,101583.50
2023-04-09T07:38:33.217Z,101576.75
2023-04-09T07:41:01.382Z,101574.25
2023-04-09T07:43:29.432Z,101588.25
2023-04-09T07:45:56.941Z,101582.97
2023-04-09T07:48:25.159Z,101586.31
2023-04-09T07:50:53.086Z,101585.44
2023-04-09T07:53:20.975Z,101584.28
2023-04-09T07:55:48.591Z,101590.22
2023-04-09T07:58:16.131Z,101593.50
2023-04-09T08:00:43.876Z,101600.72
2023-04-09T08:03:11.818Z,101603.50
2023-04-09T08:05:39.947Z,101599.72
2023-04-09T08:08:07.574Z,101595.81
2023-04-09T08:10:35.425Z,101601.97
2023-04-09T08:13:03.478Z,101603.88
2023-04-09T08:15:31.535Z,101606.16
2023-04-09T08:17:59.547Z,101609.41
2023-04-09T08:20:27.936Z,101603.38
2023-04-09T08:22:55.821Z,101606.13
2023-04-09T08:25:23.642Z,101605.03
2023-04-09T08:27:51.692Z,101614.16
2023-04-09T08:30:22.259Z,101615.81
2023-04-09T08:32:50.213Z,101613.13
2023-04-09T08:35:18.194Z,101610.97
2023-04-09T08:37:46.291Z,101613.72
2023-04-09T08:40:14.226Z,101614.31
2023-04-09T08:42:48.088Z,101621.41
2023-04-09T08:45:15.959Z,101615.50
2023-04-09T08:47:43.753Z,101620.84
2023-04-09T08:50:12.267Z,101624.00
2023-04-09T08:52:40.443Z,101621.13
2023-04-09T08:55:10.488Z,101624.94
2023-04-09T08:57:40.123Z,101620.22
2023-04-09T09:00:10.325Z,101622.84
2023-04-09T09:02:39.453Z,101621.25
2023-04-09T09:05:09.244Z,101614.63
2023-04-09T09:07:37.435Z,101614.66
2023-04-09T09:10:06.615Z,101615.25
2023-04-09T09:12:41.486Z,101609.50
2023-04-09T09:15:28.353Z,101608.78
2023-04-09T09:17:57.358Z,101608.28
2023-04-09T09:20:27.677Z,101606.16
2023-04-09T09:22:56.545Z,101602.41
2023-04-09T09:25:24.905Z,101614.28
2023-04-09T09:27:52.250Z,101602.34
2023-04-09T09:30:23.282Z,101603.63
2023-04-09T09:33:29.767Z,101602.44
2023-04-09T09:35:57.861Z,101599.72
2023-04-09T09:38:25.152Z,101600.53
2023-04-09T09:40:53.188Z,101604.69
2023-04-09T09:43:24.686Z,101596.06
2023-04-09T09:45:51.903Z,101603.56
2023-04-09T09:48:19.816Z,101601.47
2023-04-09T09:50:47.702Z,101602.84
2023-04-09T09:53:15.545Z,101598.91
2023-04-09T09:55:44.784Z,101600.94
2023-04-09T09:58:25.854Z,101604.59
2023-04-09T10:00:53.568Z,101603.78
2023-04-09T10:03:23.344Z,101602.03
2023-04-09T10:05:50.968Z,101594.19
2023-04-09T10:08:21.732Z,101596.78
2023-04-09T10:10:49.535Z,101599.34
2023-04-09T10:13:24.645Z,101593.19
2023-04-09T10:15:52.273Z,101601.00
2023-04-09T10:18:19.856Z,101592.19
2023-04-09T10:21:16.145Z,101595.38
2023-04-09T10:23:46.104Z,101589.97
2023-04-09T10:26:14.163Z,101591.53
2023-04-09T10:28:42.209Z,101589.81
2023-04-09T10:31:11.468Z,101582.06
2023-04-09T10:33:39.854Z,101587.13
2023-04-09T10:36:12.324Z,101583.06
2023-04-09T10:38:47.123Z,101580.72
2023-04-09T10:41:28.386Z,101583.44
2023-04-09T10:43:55.600Z,101581.63
2023-04-09T10:46:30.030Z,101580.03
2023-04-09T10:49:13.871Z,101573.34
2023-04-09T10:51:41.329Z,101569.34
2023-04-09T10:54:33.429Z,101568.75
2023-04-09T10:57:09.145Z,101573.81
2023-04-09T11:00:07.138Z,101573.19
2023-04-09T11:02:40.240Z,101570.63
2023-04-09T11:05:31.861Z,101561.78
2023-04-09T11:08:14.050Z,101562.53
2023-04-09T11:10:44.119Z,101560.41
2023-04-09T11:13:18.295Z,101555.91
2023-04-09T11:15:46.718Z,101556.69
2023-04-09T11:18:20.763Z,101552.38
2023-04-09T11:20:48.087Z,101554.88
2023-04-09T11:23:15.910Z,101556.53
2023-04-09T11:25:44.142Z,101558.13
2023-04-09T11:28:12.142Z,101559.53
2023-04-09T11:30:39.804Z,101557.50
2023-04-09T11:33:08.840Z,101557.50
2023-04-09T11:35:37.226Z,101556.78
2023-04-09T11:38:10.749Z,101555.25
2023-04-09T11:40:48.499Z,101562.25
2023-04-09T11:43:21.076Z,101557.13
2023-04-09T11:45:49.037Z,101554.81
2023-04-09T11:48:18.513Z,101554.38
2023-04-09T11:50:46.692Z,101549.59
2023-04-09T11:53:52.556Z,101548.94
2023-04-09T11:56:20.583Z,101540.28
2023-04-09T11:58:49.248Z,101534.16
2023-04-09T12:01:17.086Z,101543.78
2023-04-09T12:03:44.919Z,101536.78
2023-04-09T12:06:12.508Z,101529.75
2023-04-09T12:08:40.344Z,101534.03
2023-04-09T12:11:16.077Z,101529.63
2023-04-09T12:13:44.724Z,101540.00
2023-04-09T12:16:13.202Z,101536.50
2023-04-09T12:18:40.584Z,101530.38
2023-04-09T12:21:08.235Z,101533.78
2023-04-09T12:23:36.325Z,101526.78
2023-04-09T12:26:04.523Z,101529.31
2023-04-09T12:28:32.342Z,101518.75
2023-04-09T12:31:00.214Z,101516.97
2023-04-09T12:33:27.890Z,101516.84
2023-04-09T12:35:58.366Z,101522.81
2023-04-09T12:38:29.922Z,101515.69
2023-04-09T12:40:57.478Z,101519.78
2023-04-09T12:43:25.565Z,101513.75
2023-04-09T12:45:53.277Z,101510.25
2023-04-09T12:48:21.021Z,101511.25
2023-04-09T12:50:48.457Z,101513.81
2023-04-09T12:53:16.156Z,101506.88
2023-04-09T12:55:43.984Z,101503.50
2023-04-09T12:58:12.127Z,101500.84
2023-04-09T13:00:40.601Z,101505.38
2023-04-09T13:03:09.079Z,101507.25
2023-04-09T13:05:37.404Z,101511.72
2023-04-09T13:08:05.435Z,101502.31
2023-04-09T13:10:33.442Z,101505.84
2023-04-09T13:13:00.976Z,101499.81
2023-04-09T13:15:31.766Z,101502.47
2023-04-09T13:17:59.940Z,101495.66
2023-04-09T13:20:27.589Z,101487.94
2023-04-09T13:22:55.604Z,101490.16
2023-04-09T13:25:23.380Z,101488.00
2023-04-09T13:27:51.132Z,101479.28
2023-04-09T13:30:19.427Z,101479.59
2023-04-09T13:32:47.503Z,101476.84
2023-04-09T13:35:15.213Z,101467.75
2023-04-09T13:37:43.501Z,101469.00
2023-04-09T13:40:13.142Z,101467.19
2023-04-09T13:42:41.001Z,101457.94
2023-04-09T13:45:10.155Z,101452.81
2023-04-09T13:47:38.023Z,101453.78
2023-04-09T13:50:10.285Z,101456.50
2023-04-09T13:52:38.816Z,101453.91
2023-04-09T13:55:10.446Z,101452.19
2023-04-09T13:57:38.020Z,101450.47
2023-04-09T14:00:09.792Z,101445.16
2023-04-09T14:02:37.558Z,101453.00
2023-04-09T14:05:06.740Z,101445.13
2023-04-09T14:07:34.934Z,101442.56
2023-04-09T14:10:02.882Z,101434.75
2023-04-09T14:12:30.742Z,101440.88
2023-04-09T14:14:59.046Z,101430.19
2023-04-09T14:17:27.653Z,101439.66
2023-04-09T14:19:55.384Z,101440.97
2023-04-09T14:22:23.373Z,101426.31
2023-04-09T14:24:51.179Z,101424.78
2023-04-09T14:27:19.491Z,101429.94
2023-04-09T14:29:47.498Z,101425.84
2023-04-09T14:32:15.328Z,101423.94
2023-04-09T14:34:42.744Z,101431.91
2023-04-09T14:37:10.626Z,101430.78
2023-04-09T14:39:38.499Z,101427.38
2023-04-09T14:42:06.456Z,101426.84
2023-04-09T14:44:34.503Z,101430.75
2023-04-09T14:47:02.633Z,101439.69
2023-04-09T14:49:30.914Z,101439.50
2023-04-09T14:51:57.602Z,101438.13
2023-04-09T14:54:32.439Z,101432.09
2023-04-09T14:57:00.061Z,101433.00
2023-04-09T14:59:27.604Z,101435.56
2023-04-09T15:01:55.876Z,101438.97
2023-04-09T15:04:23.802Z,101434.47
2023-04-09T15:06:51.515Z,101440.47
2023-04-09T15:09:19.589Z,101440.44
2023-04-09T15:11:47.650Z,101441.25
2023-04-09T15:14:15.754Z,101436.78
2023-04-09T15:16:43.874Z,101435.03
2023-04-09T15:19:11.659Z,101439.38
2023-04-09T15:21:42.552Z,101438.44
2023-04-09T15:24:10.490Z,101430.44
2023-04-09T15:26:38.473Z,101444.19
2023-04-09T15:29:07.779Z,101439.63
2023-04-09T15:31:35.127Z,101447.31
2023-04-09T15:34:03.302Z,101440.19
2023-04-09T15:36:31.645Z,101444.38
2023-04-09T15:39:01.097Z,101448.44
2023-04-09T15:41:29.161Z,101450.84
2023-04-09T15:43:56.757Z,101449.81
2023-04-09T15:46:24.480Z,101447.00
2023-04-09T15:48:55.793Z,101451.88
2023-04-09T15:51:23.986Z,101459.56
2023-04-09T15:53:52.091Z,101458.59
2023-04-09T15:56:19.800Z,101457.56
2023-04-09T15:58:47.376Z,101466.97
2023-04-09T16:01:15.232Z,101462.59
2023-04-09T16:03:43.608Z,101463.47
2023-04-09T16:06:13.506Z,101462.44
2023-04-09T16:08:41.292Z,101464.94
2023-04-09T16:11:09.928Z,101466.41
2023-04-09T16:13:37.928Z,101469.75
2023-04-09T16:16:07.390Z,101468.88
2023-04-09T16:18:34.521Z,101466.22
2023-04-09T16:21:01.613Z,101472.25
2023-04-09T16:23:30.836Z,101473.94
2023-04-09T16:25:58.839Z,101477.44
2023-04-09T16:28:26.634Z,101473.81
2023-04-09T16:30:54.460Z,101476.31
2023-04-09T16:33:22.641Z,101482.28
2023-04-09T16:35:50.570Z,101477.84
2023-04-09T16:38:18.907Z,101475.09
2023-04-09T16:40:46.574Z,101481.03
2023-04-09T16:43:17.715Z,101484.16
2023-04-09T16:45:45.452Z,101484.03
2023-04-09T16:48:13.558Z,101482.19
2023-04-09T16:50:41.339Z,101480.13
2023-04-09T16:53:09.344Z,101480.91
2023-04-09T16:55:37.411Z,101485.78
2023-04-09T16:58:05.678Z,101489.09
2023-04-09T17:00:33.419Z,101492.50
2023-04-09T17:03:02.305Z,101492.47
2023-04-09T17:05:31.307Z,101491.56
2023-04-09T17:07:59.076Z,101503.56
2023-04-09T17:10:27.703Z,101507.63
2023-04-09T17:12:55.786Z,101508.41
2023-04-09T17:15:25.382Z,101507.44
2023-04-09T17:17:53.912Z,101505.50
2023-04-09T17:20:22.843Z,101514.16
2023-04-09T17:22:50.640Z,101512.38
2023-04-09T17:25:18.036Z,101508.81
2023-04-09T17:27:45.919Z,101509.69
2023-04-09T17:30:14.090Z,101508.72
2023-04-09T17:32:43.696Z,101512.16
2023-04-09T17:35:11.421Z,101518.16
2023-04-09T17:37:39.568Z,101522.44
2023-04-09T17:40:12.427Z,101529.22
2023-04-09T17:42:40.120Z,101523.97
2023-04-09T17:45:18.292Z,101533.38
2023-04-09T17:47:47.044Z,101525.44
2023-04-09T17:50:15.304Z,101535.69
2023-04-09T17:52:43.409Z,101542.53
2023-04-09T17:55:13.086Z,101545.81
2023-04-09T17:57:40.296Z,101544.06
2023-04-09T18:00:11.149Z,101548.31
2023-04-09T18:02:39.986Z,101550.78
2023-04-09T18:05:09.628Z,101553.22
2023-04-09T18:07:38.684Z,101561.66
2023-04-09T18:10:08.236Z,101559.09
2023-04-09T18:12:35.927Z,101561.59
2023-04-09T18:15:04.417Z,101565.84
2023-04-09T18:17:32.528Z,101568.44
2023-04-09T18:20:00.345Z,101565.69
2023-04-09T18:22:28.388Z,101573.28
2023-04-09T18:24:56.658Z,101576.56
2023-04-09T18:27:24.827Z,101579.25
2023-04-09T18:29:52.575Z,101586.94
2023-04-09T18:32:20.255Z,101593.81
2023-04-09T18:34:48.268Z,101591.00
2023-04-09T18:37:16.284Z,101595.31
2023-04-09T18:39:44.313Z,101598.63
2023-04-09T18:42:11.523Z,101607.25
2023-04-09T18:44:39.145Z,101605.53
2023-04-09T18:47:09.317Z,101615.88
2023-04-09T18:49:37.110Z,101623.63
2023-04-09T18:52:09.398Z,101628.81
2023-04-09T18:54:37.534Z,101623.53
2023-04-09T18:57:05.210Z,101631.28
2023-04-09T18:59:34.664Z,101637.19
2023-04-09T19:02:05.221Z,101637.06
2023-04-09T19:04:39.627Z,101637.88
2023-04-09T19:07:07.813Z,101634.28
2023-04-09T19:09:37.122Z,101638.44
2023-04-09T19:12:06.132Z,101641.72
2023-04-09T19:14:33.569Z,101640.78
2023-04-09T19:17:03.283Z,101645.03
2023-04-09T19:19:31.345Z,101650.06
2023-04-09T19:22:00.017Z,101649.91
2023-04-09T19:24:28.049Z,101656.75
2023-04-09T19:26:56.709Z,101655.81
2023-04-09T19:29:24.747Z,101657.53
2023-04-09T19:31:52.754Z,101671.34
2023-04-09T19:34:20.566Z,101666.22
2023-04-09T19:36:48.563Z,101674.91
2023-04-09T19:39:16.162Z,101675.72
2023-04-09T19:41:43.264Z,101691.19
2023-04-09T19:44:11.385Z,101685.97
2023-04-09T19:46:39.385Z,101687.59
2023-04-09T19:49:07.470Z,101698.66
2023-04-09T19:51:35.017Z,101693.34
2023-04-09T19:54:02.626Z,101693.25
2023-04-09T19:56:30.958Z,101697.44
2023-04-09T19:59:00.548Z,101701.78
2023-04-09T20:01:28.795Z,101699.19
2023-04-09T20:03:56.950Z,101696.56
2023-04-09T20:06:24.670Z,101692.28
2023-04-09T20:08:53.536Z,101700.91
2023-04-09T20:11:21.254Z,101705.06
2023-04-09T20:13:49.652Z,101705.72
2023-04-09T20:16:17.499Z,101709.09
2023-04-09T20:18:45.372Z,101703.91
2023-04-09T20:21:14.552Z,101709.00
2023-04-09T20:23:42.408Z,101717.47
2023-04-09T20:26:11.321Z,101707.00
2023-04-09T20:28:39.353Z,101706.91
2023-04-09T20:31:07.666Z,101702.56
2023-04-09T20:33:35.638Z,101709.53
2023-04-09T20:36:06.858Z,101712.84
2023-04-09T20:38:34.804Z,101717.97
2023-04-09T20:41:02.891Z,101715.41
2023-04-09T20:43:30.423Z,101720.44
2023-04-09T20:45:58.443Z,101719.34
2023-04-09T20:48:26.427Z,101717.47
2023-04-09T20:50:54.161Z,101717.34
2023-04-09T20:53:22.008Z,101719.91
2023-04-09T20:55:50.101Z,101717.41
2023-04-09T20:58:17.994Z,101726.88
2023-04-09T21:00:45.799Z,101725.09
2023-04-09T21:03:17.224Z,101728.59
2023-04-09T21:05:45.448Z,101729.31
2023-04-09T21:08:15.499Z,101725.16
2023-04-09T21:10:43.776Z,101735.56
2023-04-09T21:13:12.049Z,101728.69
2023-04-09T21:15:40.168Z,101728.59
2023-04-09T21:18:07.972Z,101731.97
2023-04-09T21:20:38.013Z,101736.19
2023-04-09T21:23:06.063Z,101737.84
2023-04-09T21:25:35.223Z,101741.91
2023-04-09T21:28:03.631Z,101741.00
2023-04-09T21:30:32.270Z,101740.97
2023-04-09T21:33:01.504Z,101748.66
2023-04-09T21:35:29.068Z,101746.88
2023-04-09T21:37:56.798Z,101754.47
2023-04-09T21:40:24.639Z,101749.13
2023-04-09T21:42:51.654Z,101748.06
2023-04-09T21:45:19.361Z,101746.31
2023-04-09T21:47:47.291Z,101756.50
2023-04-09T21:50:15.602Z,101761.69
2023-04-09T21:52:45.575Z,101747.75
2023-04-09T21:55:13.976Z,101758.84
2023-04-09T21:57:41.989Z,101751.94
2023-04-09T22:00:11.573Z,101758.06
2023-04-09T22:02:39.825Z,101754.41
2023-04-09T22:05:09.427Z,101761.28
2023-04-09T22:07:39.278Z,101760.41
2023-04-09T22:10:11.043Z,101750.94
2023-04-09T22:12:38.566Z,101758.34
2023-04-09T22:15:09.020Z,101759.03
2023-04-09T22:17:36.765Z,101760.56
2023-04-09T22:20:06.309Z,101765.75
2023-04-09T22:22:33.939Z,101770.91
2023-04-09T22:25:01.854Z,101768.31
2023-04-09T22:27:29.963Z,101766.47
2023-04-09T22:29:57.841Z,101768.19
2023-04-09T22:32:29.161Z,101768.88
2023-04-09T22:34:57.090Z,101769.00
2023-04-09T22:37:24.589Z,101770.66
2023-04-09T22:39:52.678Z,101766.22
2023-04-09T22:42:21.060Z,101773.16
2023-04-09T22:44:48.838Z,101773.91
2023-04-09T22:47:16.771Z,101771.22
2023-04-09T22:49:44.440Z,101777.16
2023-04-09T22:52:12.123Z,101777.16
2023-04-09T22:54:39.673Z,101773.66
2023-04-09T22:57:08.071Z,101780.59
2023-04-09T22:59:40.199Z,101778.00
2023-04-09T23:02:09.393Z,101783.16
2023-04-09T23:04:37.190Z,101776.22
2023-04-09T23:07:04.908Z,101783.00
2023-04-09T23:09:32.824Z,101780.34
2023-04-09T23:12:01.221Z,101776.81
2023-04-09T23:14:29.054Z,101779.47
2023-04-09T23:16:56.492Z,101783.59
2023-04-09T23:19:24.591Z,101788.50
2023-04-09T23:21:52.480Z,101784.75
2023-04-09T23:24:20.458Z,101791.38
2023-04-09T23:26:49.180Z,101790.63
2023-04-09T23:29:17.273Z,101791.97
2023-04-09T23:31:45.278Z,101789.38
2023-04-09T23:34:13.063Z,101790.09
2023-04-09T23:36:41.033Z,101793.00
2023-04-09T23:39:08.717Z,101794.53
2023-04-09T23:41:36.683Z,101794.13
2023-04-09T23:44:05.203Z,101786.19
2023-04-09T23:46:32.935Z,101791.28
2023-04-09T23:49:00.676Z,101790.19
2023-04-09T23:51:28.336Z,101793.34
2023-04-09T23:53:56.355Z,101788.84
2023-04-09T23:56:23.996Z,101784.50
2023-04-09T23:58:51.853Z,101782.59
